Terminal Aerodrome Forecast
Issued by NWS

Home | Current Version | Previous Version | Text Only | Print | Product List | Glossary On
Versions: 1 2 3 4 5 6 7 8 9 10 11 12
000
FTUS46 KSTO 220500
TAFSMF
TAF
KSMF 220538Z 2206/2306 20011KT P6SM SCT150
     FM221900 19009KT P6SM FEW150
     FM230100 19015KT P6SM SKC=

USA.gov is the U.S. government's official web portal to all federal, state and local government web resources and services.